Time;durP1;ratioP1;P1;durP2;ratioP2;P2;SDS_P1;SDS_P2;PMS_P1;PMS_P2;Temp;Humidity;BMP_temperature;BMP_pressure;BME280_temperature;BME280_humidity;BME280_pressure;Samples;Min_cycle;Max_cycle;Signal;HPM_P1;HPM_P2
2023/02/19 00:02:19;;;;;;;7.90;5.30;;;;;;;;;;5083797;28;20025;-80
2023/02/19 00:04:47;;;;;;;8.52;5.07;;;;;;;;;;5082299;28;20024;-78
2023/02/19 00:07:16;;;;;;;11.98;5.75;;;;;;;;;;5085839;28;20063;-79
2023/02/19 00:09:43;;;;;;;8.73;5.47;;;;;;;;;;5065891;28;20028;-79
2023/02/19 00:12:10;;;;;;;7.82;5.63;;;;;;;;;;5072713;28;20049;-79
2023/02/19 00:14:51;;;;;;;9.95;5.80;;;;;;;;;;5075093;28;20023;-80
2023/02/19 00:17:19;;;;;;;9.55;5.57;;;;;;;;;;5073225;28;20021;-79
2023/02/19 00:19:47;;;;;;;9.00;5.85;;;;;;;;;;5079496;28;20028;-78
2023/02/19 00:22:30;;;;;;;8.73;5.10;;;;;;;;;;5078669;28;20032;-79
2023/02/19 00:24:59;;;;;;;9.10;6.03;;;;;;;;;;5072936;28;20107;-80
2023/02/19 00:27:28;;;;;;;8.82;5.65;;;;;;;;;;5073730;28;20029;-80
2023/02/19 00:29:55;;;;;;;8.90;6.20;;;;;;;;;;5076605;28;20576;-78
2023/02/19 00:32:24;;;;;;;12.10;6.20;;;;;;;;;;5074010;28;20494;-76
2023/02/19 00:35:07;;;;;;;9.85;6.10;;;;;;;;;;5071542;28;20083;-79
2023/02/19 00:37:33;;;;;;;8.95;6.28;;;;;;;;;;5075249;28;20078;-78
2023/02/19 00:39:59;;;;;;;10.48;5.72;;;;;;;;;;5097928;28;20116;-80
2023/02/19 00:42:26;;;;;;;7.85;5.57;;;;;;;;;;5088317;28;20052;-80
2023/02/19 00:44:52;;;;;;;9.32;6.05;;;;;;;;;;5092703;28;20054;-80
2023/02/19 00:47:21;;;;;;;9.10;5.47;;;;;;;;;;5083368;28;20067;-81
2023/02/19 00:49:47;;;;;;;8.57;5.75;;;;;;;;;;5085784;28;20036;-79
2023/02/19 00:52:16;;;;;;;7.88;5.07;;;;;;;;;;5087944;28;20088;-80
2023/02/19 00:54:43;;;;;;;8.43;5.45;;;;;;;;;;5094534;28;20033;-79
2023/02/19 00:57:09;;;;;;;10.23;6.20;;;;;;;;;;5090201;28;20025;-80
2023/02/19 00:59:35;;;;;;;6.65;5.10;;;;;;;;;;5080594;28;20107;-80
2023/02/19 01:02:02;;;;;;;8.40;4.85;;;;;;;;;;5068085;28;20161;-79
2023/02/19 01:04:29;;;;;;;8.10;5.35;;;;;;;;;;5059746;28;20119;-79
2023/02/19 01:06:55;;;;;;;8.85;5.45;;;;;;;;;;5063316;28;20029;-80
2023/02/19 01:09:22;;;;;;;7.03;4.88;;;;;;;;;;5072593;28;20028;-78
2023/02/19 01:11:52;;;;;;;7.47;5.25;;;;;;;;;;5072502;28;20390;-80
2023/02/19 01:14:21;;;;;;;7.53;5.15;;;;;;;;;;5063816;28;20032;-78
2023/02/19 01:16:49;;;;;;;6.80;5.03;;;;;;;;;;5070559;28;20028;-79
2023/02/19 01:19:16;;;;;;;7.65;5.32;;;;;;;;;;5063610;28;20056;-78
2023/02/19 01:21:43;;;;;;;6.88;5.07;;;;;;;;;;5055525;28;20033;-78
2023/02/19 01:24:10;;;;;;;8.48;5.63;;;;;;;;;;5049317;28;20033;-79
2023/02/19 01:26:39;;;;;;;7.78;5.30;;;;;;;;;;5065959;28;20025;-79
2023/02/19 01:29:07;;;;;;;6.85;4.93;;;;;;;;;;5072444;28;20048;-81
2023/02/19 01:31:35;;;;;;;8.48;5.63;;;;;;;;;;5065452;28;20020;-79
2023/02/19 01:34:02;;;;;;;9.48;5.28;;;;;;;;;;5069125;28;20470;-79
2023/02/19 01:36:31;;;;;;;7.57;5.60;;;9.30;99.90;;;;;;5065348;28;20037;-79
2023/02/19 01:39:02;;;;;;;7.35;5.13;;;9.40;99.90;;;;;;5065231;28;20044;-79
2023/02/19 01:41:29;;;;;;;5.93;4.40;;;;;;;;;;5072477;28;20025;-78
2023/02/19 01:44:06;;;;;;;5.50;4.40;;;9.30;99.90;;;;;;5063814;28;20048;-79
2023/02/19 01:46:37;;;;;;;7.38;4.60;;;9.30;99.90;;;;;;5064614;28;20043;-78
2023/02/19 01:49:15;;;;;;;;;;;9.40;99.90;;;;;;5069970;28;20016;-78
2023/02/19 01:52:02;;;;;;;6.18;4.22;;;9.20;99.90;;;;;;5093374;28;19980;-86
2023/02/19 01:54:31;;;;;;;6.28;4.60;;;9.20;99.90;;;;;;5082358;28;20032;-77
2023/02/19 01:56:58;;;;;;;7.15;4.55;;;10.50;99.90;;;;;;5066220;28;20481;-78
2023/02/19 01:59:25;;;;;;;6.82;4.40;;;9.20;99.90;;;;;;5065724;28;20041;-79
2023/02/19 02:01:51;;;;;;;5.70;4.15;;;;;;;;;;5082745;28;20029;-80
2023/02/19 02:04:18;;;;;;;6.47;4.10;;;9.30;99.90;;;;;;5089684;28;20025;-80
2023/02/19 02:06:55;;;;;;;4.75;4.00;;;9.30;99.90;;;;;;5080827;28;20113;-80
2023/02/19 02:12:15;;;;;;;5.20;4.05;;;9.60;99.90;;;;;;5084021;28;20046;-80
2023/02/19 02:14:44;;;;;;;5.72;4.03;;;9.30;99.90;;;;;;5064491;28;20067;-79
2023/02/19 02:17:30;;;;;;;7.97;4.65;;;9.20;99.90;;;;;;5089935;28;20470;-78
2023/02/19 02:20:07;;;;;;;5.57;3.67;;;8.20;99.90;;;;;;5072890;28;20466;-78
2023/02/19 02:22:56;;;;;;;5.53;4.28;;;9.00;99.90;;;;;;5072463;28;20048;-79
2023/02/19 02:25:34;;;;;;;6.38;3.90;;;9.40;99.90;;;;;;5073018;28;20064;-79
2023/02/19 02:28:28;;;;;;;5.20;3.92;;;9.50;99.90;;;;;;5074808;28;20024;-78
2023/02/19 02:30:58;;;;;;;5.35;3.58;;;9.50;99.90;;;;;;5073205;28;20067;-79
2023/02/19 02:33:42;;;;;;;5.03;3.95;;;9.40;99.90;;;;;;5073389;28;20028;-79
2023/02/19 02:36:10;;;;;;;6.68;3.95;;;9.40;99.90;;;;;;5072671;28;20445;-79
2023/02/19 02:38:39;;;;;;;5.65;4.05;;;9.40;99.90;;;;;;5071442;28;20017;-79
2023/02/19 02:41:06;;;;;;;4.95;3.88;;;9.40;99.90;;;;;;5079046;28;20030;-79
2023/02/19 02:43:32;;;;;;;4.18;3.50;;;;;;;;;;5074773;28;20027;-78
2023/02/19 02:46:00;;;;;;;4.68;3.63;;;9.50;99.90;;;;;;5066785;28;20393;-79
2023/02/19 02:48:38;;;;;;;6.10;4.70;;;8.10;99.90;;;;;;5068187;28;20052;-78
2023/02/19 02:51:14;;;;;;;6.18;4.30;;;9.40;99.90;;;;;;5070116;28;20054;-80
2023/02/19 02:56:33;;;;;;;5.03;4.28;;;9.40;99.90;;;;;;5067581;28;20414;-78
2023/02/19 02:59:03;;;;;;;5.55;3.65;;;9.40;99.90;;;;;;5072345;28;20106;-78
2023/02/19 03:05:50;;;;;;;6.97;4.68;;;9.40;99.90;;;;;;5066019;28;20412;-79
2023/02/19 03:07:36;;;;;;;4.40;3.40;;;9.40;99.90;;;;;;5055995;28;20029;-79
2023/02/19 03:10:07;;;;;;;4.70;3.75;;;9.40;99.90;;;;;;5072135;28;20504;-79
2023/02/19 03:20:57;;;;;;;5.55;3.70;;;9.30;99.90;;;;;;5069163;28;20097;-78
2023/02/19 03:26:15;;;;;;;6.95;3.60;;;9.40;99.90;;;;;;5069184;28;20086;-79
2023/02/19 03:31:31;;;;;;;5.15;3.70;;;9.40;99.90;;;;;;5066454;28;20123;-78
2023/02/19 03:34:01;;;;;;;5.38;3.28;;;9.40;99.90;;;;;;5069648;28;20538;-79
2023/02/19 03:36:36;;;;;;;6.07;3.63;;;9.40;99.90;;;;;;5070246;28;20490;-79
2023/02/19 03:39:06;;;;;;;5.20;3.38;;;9.50;99.90;;;;;;5071390;28;20386;-78
2023/02/19 03:41:36;;;;;;;5.95;4.00;;;;;;;;;;5057378;28;20059;-78
2023/02/19 03:44:02;;;;;;;4.38;3.42;;;;;;;;;;5067040;28;20083;-79
2023/02/19 03:46:45;;;;;;;4.65;3.70;;;9.50;99.90;;;;;;5069393;28;20052;-79
2023/02/19 03:49:48;;;;;;;4.30;3.47;;;9.50;99.90;;;;;;5051929;28;20028;-80
2023/02/19 03:52:42;;;;;;;5.55;4.00;;;9.40;99.90;;;;;;5070855;28;21212;-79
2023/02/19 03:55:23;;;;;;;5.97;3.90;;;9.50;99.90;;;;;;5075423;28;20040;-78
2023/02/19 03:58:23;;;;;;;4.95;3.70;;;9.60;99.90;;;;;;5073051;28;20020;-79
2023/02/19 04:00:55;;;;;;;5.40;3.55;;;9.60;99.90;;;;;;5080756;28;20037;-79
2023/02/19 04:03:36;;;;;;;4.20;3.28;;;9.70;99.90;;;;;;5082005;28;20020;-79
2023/02/19 04:06:06;;;;;;;4.65;3.10;;;9.60;99.90;;;;;;5088805;28;20090;-79
2023/02/19 04:08:35;;;;;;;5.00;3.63;;;9.70;99.90;;;;;;5074645;28;20024;-77
2023/02/19 04:11:03;;;;;;;4.85;3.70;;;9.60;99.90;;;;;;5067284;28;20507;-79
2023/02/19 04:13:38;;;;;;;5.03;3.55;;;9.60;99.90;;;;;;5071799;28;20108;-79
2023/02/19 04:16:13;;;;;;;5.28;3.65;;;9.60;99.90;;;;;;5071430;28;20036;-79
2023/02/19 04:18:42;;;;;;;4.85;3.70;;;9.60;99.90;;;;;;5068025;28;20429;-77
2023/02/19 04:21:08;;;;;;;5.47;3.40;;;;;;;;;;5066589;28;20025;-78
2023/02/19 04:23:39;;;;;;;6.97;3.72;;;9.70;99.90;;;;;;5074201;28;20035;-80
2023/02/19 04:26:06;;;;;;;;;;;9.60;99.90;;;;;;5071033;28;20483;-77
2023/02/19 04:28:33;;;;;;;3.60;2.97;;;9.60;99.90;;;;;;5078641;28;19912;-78
2023/02/19 04:30:59;;;;;;;5.82;3.47;;;;;;;;;;5083939;28;20371;-79
2023/02/19 04:33:27;;;;;;;4.45;3.22;;;;;;;;;;5079144;28;20036;-79
2023/02/19 04:35:53;;;;;;;4.93;3.63;;;;;;;;;;5069224;28;20497;-79
2023/02/19 04:38:20;;;;;;;3.97;3.30;;;;;;;;;;5070051;28;20033;-79
2023/02/19 04:40:50;;;;;;;5.20;3.67;;;;;;;;;;5067249;28;20027;-78
2023/02/19 04:43:17;;;;;;;4.80;3.42;;;;;;;;;;5069984;28;20069;-77
2023/02/19 04:45:44;;;;;;;4.63;3.55;;;;;;;;;;5069521;28;20498;-79
2023/02/19 04:48:10;;;;;;;4.13;3.60;;;;;;;;;;5064735;28;20181;-79
2023/02/19 04:50:40;;;;;;;5.10;3.50;;;9.70;99.90;;;;;;5063825;28;20027;-77
2023/02/19 04:53:06;;;;;;;6.47;4.00;;;;;;;;;;5067689;28;20036;-77
2023/02/19 04:55:36;;;;;;;5.75;3.70;;;9.60;99.90;;;;;;5065987;28;20043;-79
2023/02/19 04:58:02;;;;;;;4.88;3.70;;;;;;;;;;5067066;28;20016;-78
2023/02/19 05:00:28;;;;;;;4.85;3.80;;;;;;;;;;5067000;28;20036;-76
2023/02/19 05:02:54;;;;;;;6.53;3.65;;;;;;;;;;5067433;28;20024;-79
2023/02/19 05:07:55;;;;;;;4.97;3.65;;;;;;;;;;5023960;28;20045;-86
2023/02/19 05:10:21;;;;;;;5.30;3.80;;;;;;;;;;5024096;28;20037;-86
2023/02/19 05:12:47;;;;;;;5.32;4.20;;;;;;;;;;5025688;28;20102;-89
2023/02/19 05:15:13;;;;;;;6.72;4.20;;;9.60;99.90;;;;;;5028248;28;20053;-85
2023/02/19 05:17:39;;;;;;;5.30;4.10;;;;;;;;;;5008800;28;20070;-87
2023/02/19 05:20:05;;;;;;;7.50;3.60;;;9.50;99.90;;;;;;5042577;28;20022;-88
2023/02/19 05:22:31;;;;;;;6.70;4.38;;;;;;;;;;5042567;28;20030;-89
2023/02/19 05:24:57;;;;;;;5.65;4.18;;;9.50;99.90;;;;;;5026503;28;20022;-87
2023/02/19 05:27:22;;;;;;;6.05;4.22;;;;;;;;;;5028553;28;20081;-88
2023/02/19 05:29:48;;;;;;;5.65;3.70;;;;;;;;;;5027723;28;20014;-86
2023/02/19 05:32:14;;;;;;;4.93;3.60;;;;;;;;;;5039797;28;20018;-88
2023/02/19 05:34:40;;;;;;;4.80;3.97;;;9.50;99.90;;;;;;5026365;28;20074;-88
2023/02/19 05:37:06;;;;;;;7.95;3.80;;;;;;;;;;5039718;28;20093;-87
2023/02/19 05:39:32;;;;;;;4.95;3.65;;;9.50;99.90;;;;;;5045267;28;20038;-89
2023/02/19 05:41:58;;;;;;;5.75;3.95;;;;;;;;;;5032184;28;20044;-88
2023/02/19 05:44:24;;;;;;;5.88;3.50;;;9.50;99.90;;;;;;5033249;28;20014;-88
2023/02/19 05:46:50;;;;;;;6.85;4.22;;;9.50;99.90;;;;;;5048386;28;20029;-88
2023/02/19 05:49:16;;;;;;;4.75;3.33;;;;;;;;;;5032024;28;20048;-87
2023/02/19 05:51:42;;;;;;;6.82;3.38;;;;;;;;;;5034843;28;20026;-88
2023/02/19 05:54:09;;;;;;;6.32;3.67;;;;;;;;;;5034980;28;20042;-87
2023/02/19 05:56:39;;;;;;;5.07;3.60;;;9.60;99.90;;;;;;5051072;28;20022;-88
2023/02/19 05:59:15;;;;;;;9.40;3.85;;;9.60;99.90;;;;;;5036516;28;20080;-87
2023/02/19 06:01:41;;;;;;;5.35;3.20;;;9.60;99.90;;;;;;5032401;28;20233;-89
2023/02/19 06:04:09;;;;;;;4.93;3.08;;;9.60;99.90;;;;;;5029761;28;20018;-86
2023/02/19 06:06:36;;;;;;;4.75;3.00;;;;;;;;;;5034358;28;20018;-88
2023/02/19 06:09:02;;;;;;;3.78;3.00;;;9.70;99.90;;;;;;5053041;28;20198;-89
2023/02/19 06:11:28;;;;;;;4.20;3.38;;;9.80;99.90;;;;;;5045048;28;20159;-87
2023/02/19 06:13:54;;;;;;;4.20;2.95;;;;;;;;;;5034471;28;20033;-86
2023/02/19 06:16:20;;;;;;;4.22;2.78;;;;;;;;;;5032724;28;20132;-87
2023/02/19 06:18:47;;;;;;;5.40;3.33;;;;;;;;;;5050397;28;20068;-87
2023/02/19 06:21:13;;;;;;;5.20;2.88;;;;;;;;;;5031350;28;20034;-89
2023/02/19 06:23:39;;;;;;;9.48;3.15;;;9.70;99.90;;;;;;5033248;28;20093;-86
2023/02/19 06:26:12;;;;;;;4.85;2.92;;;11.10;99.90;;;;;;5032547;28;20048;-87
2023/02/19 06:28:39;;;;;;;4.85;2.72;;;9.70;99.90;;;;;;5050200;28;20005;-88
2023/02/19 06:31:06;;;;;;;4.85;3.03;;;12.40;99.90;;;;;;5032878;28;20026;-86
2023/02/19 06:33:32;;;;;;;5.03;2.70;;;13.00;99.90;;;;;;5031597;28;20077;-87
2023/02/19 06:36:00;;;;;;;4.57;2.90;;;9.90;99.90;;;;;;5048215;28;20018;-88
2023/02/19 06:38:26;;;;;;;5.82;3.10;;;9.90;99.90;;;;;;5034326;28;20030;-88
2023/02/19 06:40:52;;;;;;;5.78;3.05;;;;;;;;;;5032817;28;20029;-87
2023/02/19 06:43:18;;;;;;;5.65;2.83;;;;;;;;;;5035760;28;20026;-88
2023/02/19 06:45:44;;;;;;;5.90;3.00;;;;;;;;;;5047107;28;20060;-87
2023/02/19 06:48:10;;;;;;;4.93;3.25;;;10.00;99.90;;;;;;5032997;28;20022;-88
2023/02/19 06:50:36;;;;;;;4.85;2.70;;;;;;;;;;5048844;28;20045;-85
2023/02/19 06:53:02;;;;;;;4.95;3.30;;;;;;;;;;5034528;28;20026;-85
2023/02/19 06:55:28;;;;;;;6.10;2.92;;;;;;;;;;5030648;28;20050;-87
2023/02/19 06:57:54;;;;;;;5.68;2.70;;;;;;;;;;5034941;28;20113;-88
2023/02/19 07:00:20;;;;;;;6.05;3.13;;;;;;;;;;5032944;28;20063;-88
2023/02/19 07:02:46;;;;;;;7.75;2.95;;;;;;;;;;5031462;28;20022;-86
2023/02/19 07:05:12;;;;;;;6.60;3.42;;;;;;;;;;5031782;28;20036;-87
2023/02/19 07:07:38;;;;;;;6.63;2.92;;;;;;;;;;5032643;28;20025;-87
2023/02/19 07:10:04;;;;;;;4.82;3.00;;;;;;;;;;5034513;28;20052;-88
2023/02/19 07:12:30;;;;;;;5.82;2.92;;;;;;;;;;5009312;28;20052;-88
2023/02/19 07:14:56;;;;;;;5.43;3.40;;;;;;;;;;5027120;28;20025;-87
2023/02/19 07:17:22;;;;;;;5.63;3.20;;;;;;;;;;5026647;28;20030;-89
2023/02/19 07:19:48;;;;;;;6.32;3.00;;;;;;;;;;5029979;28;20033;-89
2023/02/19 07:22:14;;;;;;;6.10;2.88;;;;;;;;;;5030271;28;20038;-87
2023/02/19 07:24:40;;;;;;;7.90;3.60;;;;;;;;;;5049822;28;20366;-87
2023/02/19 07:27:05;;;;;;;7.07;3.38;;;;;;;;;;5029864;28;20030;-86
2023/02/19 07:29:31;;;;;;;7.22;3.15;;;;;;;;;;5028294;28;20014;-87
2023/02/19 07:31:57;;;;;;;7.97;3.25;;;;;;;;;;5030168;28;20025;-86
2023/02/19 07:34:23;;;;;;;6.88;3.10;;;;;;;;;;5030937;28;20684;-88
2023/02/19 07:36:49;;;;;;;5.90;2.80;;;;;;;;;;5022143;28;20022;-86
2023/02/19 07:39:15;;;;;;;7.40;2.95;;;;;;;;;;5022629;28;20048;-89
2023/02/19 07:41:41;;;;;;;7.82;3.05;;;;;;;;;;5021901;28;20405;-87
2023/02/19 07:44:07;;;;;;;7.20;3.38;;;;;;;;;;5038201;28;20462;-85
2023/02/19 07:46:33;;;;;;;5.82;2.88;;;;;;;;;;5026882;28;20049;-87
2023/02/19 07:48:59;;;;;;;5.57;3.28;;;;;;;;;;5030978;28;20026;-86
2023/02/19 07:51:25;;;;;;;9.43;3.65;;;;;;;;;;5022979;28;20083;-87
2023/02/19 07:53:51;;;;;;;6.43;3.70;;;;;;;;;;5024466;28;20072;-86
2023/02/19 07:56:18;;;;;;;5.22;2.80;;;;;;;;;;5026012;28;20514;-86
2023/02/19 07:58:45;;;;;;;7.00;3.65;;;9.90;99.90;;;;;;5039652;28;20049;-89
2023/02/19 08:04:07;;;;;;;5.88;3.22;;;11.40;99.90;;;;;;5020171;28;20060;-85
2023/02/19 08:06:33;;;;;;;7.15;3.45;;;;;;;;;;5027090;28;20053;-86
2023/02/19 08:08:59;;;;;;;8.73;3.33;;;;;;;;;;5029599;28;20045;-87
2023/02/19 08:14:10;;;;;;;6.35;3.28;;;;;;;;;;5027734;28;20097;-86
2023/02/19 08:16:36;;;;;;;4.90;3.20;;;;;;;;;;5025327;28;20029;-88
2023/02/19 08:19:02;;;;;;;5.85;2.85;;;;;;;;;;5031526;28;20064;-88
2023/02/19 08:21:28;;;;;;;7.35;3.17;;;;;;;;;;5050581;28;20022;-86
2023/02/19 08:23:54;;;;;;;7.00;3.25;;;;;;;;;;5015143;28;21443;-84
2023/02/19 08:26:20;;;;;;;6.15;3.15;;;;;;;;;;5028365;28;20037;-85
2023/02/19 08:28:46;;;;;;;7.97;2.90;;;;;;;;;;5028928;28;20034;-88
2023/02/19 08:31:12;;;;;;;7.90;3.20;;;;;;;;;;5026880;28;20048;-90
2023/02/19 08:33:38;;;;;;;4.60;2.83;;;;;;;;;;5027576;28;20555;-87
2023/02/19 08:36:06;;;;;;;5.50;2.80;;;10.40;99.90;;;;;;5028585;28;20033;-88
2023/02/19 08:38:34;;;;;;;6.30;2.92;;;10.40;99.90;;;;;;5024294;28;20070;-85
2023/02/19 08:41:06;;;;;;;5.57;2.67;;;10.50;99.90;;;;;;5026309;28;20026;-87
2023/02/19 08:43:32;;;;;;;5.15;3.05;;;10.50;99.90;;;;;;5031654;28;20098;-87
2023/02/19 08:45:58;;;;;;;5.53;2.30;;;;;;;;;;5030516;28;20022;-87
2023/02/19 08:48:24;;;;;;;7.10;2.60;;;10.50;99.90;;;;;;5028579;28;20218;-88
2023/02/19 08:51:02;;;;;;;5.78;2.50;;;11.60;99.90;;;;;;5031016;28;20595;-86
2023/02/19 08:53:29;;;;;;;5.07;2.50;;;10.60;99.90;;;;;;5028941;28;20022;-86
2023/02/19 08:55:55;;;;;;;6.95;2.53;;;;;;;;;;5041209;28;20030;-87
2023/02/19 08:58:21;;;;;;;9.50;2.97;;;;;;;;;;5034385;28;20030;-89
2023/02/19 09:00:47;;;;;;;4.03;2.47;;;;;;;;;;5044125;28;20026;-87
2023/02/19 09:03:13;;;;;;;8.23;3.00;;;;;;;;;;5031230;28;20037;-87
2023/02/19 09:05:39;;;;;;;5.28;2.80;;;;;;;;;;5046492;28;20006;-88
2023/02/19 09:08:05;;;;;;;8.90;2.83;;;;;;;;;;5040434;28;20216;-90
2023/02/19 09:10:31;;;;;;;7.75;2.67;;;;;;;;;;5026027;28;20036;-87
2023/02/19 09:12:57;;;;;;;6.43;2.33;;;10.60;99.90;;;;;;5029937;28;20053;-86
2023/02/19 09:15:23;;;;;;;7.60;2.45;;;10.60;99.90;;;;;;5026550;28;20128;-88
2023/02/19 09:17:51;;;;;;;7.07;2.88;;;10.60;99.90;;;;;;5030753;28;20014;-86
2023/02/19 09:20:17;;;;;;;5.88;2.28;;;10.50;99.90;;;;;;5032643;28;20014;-86
2023/02/19 09:22:43;;;;;;;5.03;2.40;;;;;;;;;;5049305;28;20040;-88
2023/02/19 09:25:09;;;;;;;9.20;2.78;;;10.70;99.90;;;;;;5046338;28;20025;-85
2023/02/19 09:27:35;;;;;;;5.10;2.63;;;;;;;;;;5030012;28;20028;-86
2023/02/19 09:30:01;;;;;;;9.60;2.70;;;;;;;;;;5047559;28;20048;-88
2023/02/19 09:32:29;;;;;;;5.72;2.45;;;10.80;99.90;;;;;;5040315;28;20053;-87
2023/02/19 09:34:55;;;;;;;6.05;2.40;;;;;;;;;;5030006;28;20120;-87
2023/02/19 09:37:29;;;;;;;5.13;1.92;;;;;;;;;;5048593;28;20046;-88
2023/02/19 09:39:55;;;;;;;6.05;2.60;;;;;;;;;;5031280;28;20202;-87
2023/02/19 09:42:30;;;;;;;5.78;2.30;;;10.80;99.90;;;;;;5032655;28;20040;-86
2023/02/19 09:44:58;;;;;;;7.60;2.70;;;10.80;99.90;;;;;;5032050;28;20010;-86
2023/02/19 09:47:30;;;;;;;5.97;2.83;;;10.90;99.90;;;;;;5032771;28;20014;-87
2023/02/19 09:49:59;;;;;;;5.45;2.40;;;11.10;99.90;;;;;;5030944;28;20644;-86
2023/02/19 09:52:44;;;;;;;5.13;2.13;;;11.10;99.90;;;;;;5048542;28;20010;-86
2023/02/19 09:55:16;;;;;;;6.25;2.35;;;;;;;;;;5053544;28;20044;-87
2023/02/19 09:57:43;;;;;;;6.95;2.28;;;11.20;99.90;;;;;;5051196;28;20042;-87
2023/02/19 10:00:30;;;;;;;4.78;2.20;;;11.20;99.90;;;;;;5038193;28;20087;-87
2023/02/19 10:03:29;;;;;;;8.35;2.53;;;11.10;99.90;;;;;;5032847;28;20010;-86
2023/02/19 10:05:56;;;;;;;4.63;2.30;;;;;;;;;;5030711;28;20137;-87
2023/02/19 10:08:23;;;;;;;8.27;2.30;;;;;;;;;;5032010;28;20105;-89
2023/02/19 10:10:54;;;;;;;6.22;2.03;;;11.30;99.90;;;;;;5030534;28;20057;-87
2023/02/19 10:13:30;;;;;;;6.15;2.08;;;11.40;99.90;;;;;;5030728;28;20022;-88
2023/02/19 10:15:58;;;;;;;6.22;2.33;;;;;;;;;;5014548;28;20038;-86
2023/02/19 10:18:41;;;;;;;7.20;2.30;;;11.50;99.90;;;;;;5028908;28;20037;-86
2023/02/19 10:21:10;;;;;;;4.07;1.95;;;;;;;;;;5013626;28;20033;-87
2023/02/19 10:23:36;;;;;;;4.47;2.13;;;;;;;;;;5021007;28;20449;-86
2023/02/19 10:26:02;;;;;;;8.10;2.95;;;;;;;;;;5036318;28;20018;-87
2023/02/19 10:28:30;;;;;;;5.40;2.17;;;;;;;;;;5046759;28;20042;-85
2023/02/19 10:31:02;;;;;;;4.85;2.13;;;11.60;99.90;;;;;;5043309;28;20037;-86
2023/02/19 10:33:29;;;;;;;6.32;2.40;;;;;;;;;;5028866;28;20536;-85
2023/02/19 10:36:02;;;;;;;6.20;2.45;;;11.60;99.90;;;;;;5030112;28;20038;-86
2023/02/19 10:38:37;;;;;;;6.90;2.15;;;;;;;;;;5026731;28;20022;-87
2023/02/19 10:41:05;;;;;;;8.40;2.33;;;;;;;;;;5045044;28;20034;-89
2023/02/19 10:43:38;;;;;;;7.70;2.47;;;;;;;;;;5047186;28;20018;-88
2023/02/19 10:46:06;;;;;;;4.57;2.00;;;;;;;;;;5032856;28;20034;-88
2023/02/19 10:48:38;;;;;;;7.40;2.10;;;;;;;;;;5048264;28;20511;-88
2023/02/19 10:51:06;;;;;;;4.60;2.22;;;;;;;;;;5028143;28;20073;-87
2023/02/19 10:53:41;;;;;;;6.60;2.38;;;11.60;99.90;;;;;;5026419;28;20022;-87
2023/02/19 10:56:30;;;;;;;8.63;3.05;;;;;;;;;;5035742;28;20069;-88
2023/02/19 10:59:03;;;;;;;7.22;3.17;;;;;;;;;;5040769;28;20085;-88
2023/02/19 11:01:29;;;;;;;6.15;2.30;;;;;;;;;;5011807;28;20028;-90
2023/02/19 11:04:16;;;;;;;5.72;2.03;;;;;;;;;;5028058;28;20061;-90
2023/02/19 11:06:45;;;;;;;6.20;2.13;;;11.50;99.90;;;;;;5042899;28;20058;-85
2023/02/19 11:09:34;;;;;;;6.63;2.20;;;11.40;99.90;;;;;;5029140;28;20085;-88
2023/02/19 11:12:03;;;;;;;7.97;2.47;;;;;;;;;;5022060;28;20037;-84
2023/02/19 11:14:32;;;;;;;5.03;2.15;;;;;;;;;;5041142;28;20057;-87
2023/02/19 11:17:00;;;;;;;5.15;2.22;;;;;;;;;;5032086;28;20017;-88
2023/02/19 11:19:42;;;;;;;11.63;2.40;;;;;;;;;;5043646;28;20037;-88
2023/02/19 11:22:38;;;;;;;6.10;2.67;;;;;;;;;;5043085;28;20048;-88
2023/02/19 11:25:25;;;;;;;5.40;2.28;;;;;;;;;;5017123;28;20061;-84
2023/02/19 11:28:05;;;;;;;5.30;2.35;;;;;;;;;;5024671;28;20033;-87
2023/02/19 11:30:39;;;;;;;7.15;2.78;;;;;;;;;;5025550;28;20100;-86
2023/02/19 11:33:21;;;;;;;6.95;2.28;;;;;;;;;;5024113;28;20037;-88
2023/02/19 11:35:48;;;;;;;6.93;2.45;;;;;;;;;;5018932;28;20036;-89
2023/02/19 11:38:16;;;;;;;7.90;2.72;;;;;;;;;;5034720;28;20028;-87
2023/02/19 11:40:42;;;;;;;14.18;4.38;;;;;;;;;;5024825;28;20029;-88
2023/02/19 11:43:26;;;;;;;7.00;2.22;;;;;;;;;;5026062;28;20025;-88
2023/02/19 11:46:09;;;;;;;6.07;2.40;;;;;;;;;;5021223;28;20032;-87
2023/02/19 11:48:57;;;;;;;6.30;2.33;;;;;;;;;;5019891;28;20038;-88
2023/02/19 11:52:19;;;;;;;7.10;2.58;;;11.70;99.90;;;;;;5039768;28;20057;-86
2023/02/19 11:55:27;;;;;;;7.32;2.60;;;;;;;;;;5035910;28;20087;-88
2023/02/19 11:58:14;;;;;;;5.75;2.08;;;;;;;;;;5027809;28;20026;-84
2023/02/19 12:00:47;;;;;;;9.48;2.65;;;;;;;;;;5023955;28;20033;-85
2023/02/19 12:03:34;;;;;;;6.70;2.45;;;11.60;99.90;;;;;;5025190;28;20022;-87
2023/02/19 12:06:00;;;;;;;6.72;2.40;;;;;;;;;;5031532;28;20053;-88
2023/02/19 12:09:01;;;;;;;8.60;2.90;;;11.60;99.90;;;;;;5027638;28;20037;-88
2023/02/19 12:11:27;;;;;;;7.88;2.10;;;;;;;;;;5021751;28;20038;-89
2023/02/19 12:14:11;;;;;;;5.30;1.90;;;;;;;;;;5020446;28;20037;-89
2023/02/19 12:16:37;;;;;;;7.97;2.63;;;;;;;;;;5022195;28;20507;-87
2023/02/19 12:19:23;;;;;;;9.48;2.38;;;11.80;99.90;;;;;;5022920;28;20061;-86
2023/02/19 12:22:02;;;;;;;8.18;2.30;;;;;;;;;;5023149;28;20026;-88
2023/02/19 12:24:31;;;;;;;7.43;2.17;;;;;;;;;;5023361;28;20081;-86
2023/02/19 12:27:15;;;;;;;6.45;2.13;;;;;;;;;;5042995;28;20029;-89
2023/02/19 12:30:00;;;;;;;8.23;2.30;;;11.80;99.90;;;;;;5045643;28;20018;-89
2023/02/19 12:32:32;;;;;;;6.70;2.40;;;;;;;;;;5031222;28;20034;-86
2023/02/19 12:35:39;;;;;;;8.15;2.20;;;11.90;99.90;;;;;;5021700;28;20025;-87
2023/02/19 12:38:10;;;;;;;5.13;2.10;;;;;;;;;;5020908;28;20560;-88
2023/02/19 12:41:00;;;;;;;9.35;3.03;;;12.00;99.90;;;;;;5018572;28;20089;-85
2023/02/19 12:43:27;;;;;;;7.47;2.55;;;;;;;;;;5020316;28;20022;-88
2023/02/19 12:45:58;;;;;;;9.10;2.70;;;;;;;;;;5001897;28;20052;-89
2023/02/19 12:48:36;;;;;;;6.25;2.30;;;12.10;99.90;;;;;;5016027;28;20064;-85
2023/02/19 12:51:15;;;;;;;10.85;2.53;;;;;;;;;;5016267;28;20381;-84
2023/02/19 12:53:52;;;;;;;8.27;2.72;;;12.20;99.90;;;;;;5011639;28;20028;-87
2023/02/19 12:56:20;;;;;;;7.38;2.65;;;;;;;;;;5023608;28;20025;-85
2023/02/19 12:58:49;;;;;;;11.55;2.50;;;;;;;;;;5031088;28;20026;-85
2023/02/19 13:01:23;;;;;;;6.53;2.33;;;12.00;99.90;;;;;;5018314;28;20025;-87
2023/02/19 13:03:53;;;;;;;6.68;1.92;;;;;;;;;;5019068;28;20060;-86
2023/02/19 13:06:40;;;;;;;6.60;2.42;;;;;;;;;;5019493;28;20712;-86
2023/02/19 13:09:29;;;;;;;5.50;1.95;;;12.00;99.90;;;;;;5019262;28;20037;-84
2023/02/19 13:12:02;;;;;;;6.47;2.42;;;;;;;;;;5017844;28;20038;-87
2023/02/19 13:14:31;;;;;;;7.45;2.25;;;;;;;;;;5044894;28;20040;-90
2023/02/19 13:17:09;;;;;;;6.43;2.00;;;11.90;99.90;;;;;;5026135;28;20057;-89
2023/02/19 13:19:36;;;;;;;7.63;1.88;;;;;;;;;;5036214;28;20033;-84
2023/02/19 13:24:51;;;;;;;9.43;2.03;;;;;;;;;;5024312;28;20063;-85
2023/02/19 13:27:33;;;;;;;8.88;2.30;;;11.90;99.90;;;;;;5026764;28;20057;-88
2023/02/19 13:30:37;;;;;;;6.43;1.75;;;11.90;99.90;;;;;;5014090;28;20034;-85
2023/02/19 13:33:14;;;;;;;4.32;1.65;;;12.00;99.90;;;;;;4983435;28;20036;-86
2023/02/19 13:36:06;;;;;;;7.63;1.70;;;12.00;99.90;;;;;;5016036;28;20083;-88
2023/02/19 13:38:37;;;;;;;4.35;1.42;;;;;;;;;;5031515;28;20026;-86
2023/02/19 13:41:03;;;;;;;5.72;1.73;;;12.10;99.90;;;;;;5009933;28;20037;-90
2023/02/19 13:43:33;;;;;;;5.30;1.58;;;12.10;99.90;;;;;;5015608;28;20104;-87
2023/02/19 13:46:12;;;;;;;7.55;2.10;;;12.10;99.90;;;;;;5015639;28;20030;-89
2023/02/19 13:48:41;;;;;;;5.97;1.77;;;12.20;99.90;;;;;;5010046;28;20614;-89
2023/02/19 13:51:17;;;;;;;7.25;1.95;;;;;;;;;;5015985;28;20038;-91
2023/02/19 13:53:47;;;;;;;4.90;1.80;;;;;;;;;;5012939;28;20135;-87
2023/02/19 13:56:33;;;;;;;7.93;1.98;;;;;;;;;;5014105;28;20052;-89
2023/02/19 13:59:12;;;;;;;12.88;3.03;;;;;;;;;;5014218;28;20506;-88
2023/02/19 14:01:50;;;;;;;6.82;2.30;;;;;;;;;;5031726;28;20026;-88
2023/02/19 14:04:31;;;;;;;9.75;2.03;;;;;;;;;;5014871;28;20025;-89
2023/02/19 14:07:04;;;;;;;8.18;2.30;;;;;;;;;;5026512;28;20042;-87
2023/02/19 14:09:36;;;;;;;5.88;2.00;;;;;;;;;;5035666;28;20030;-87
2023/02/19 14:12:11;;;;;;;9.07;2.30;;;;;;;;;;5024291;28;20034;-87
2023/02/19 14:14:41;;;;;;;9.77;2.63;;;;;;;;;;5018818;28;20017;-89
2023/02/19 14:17:16;;;;;;;8.07;2.20;;;;;;;;;;5034260;28;20093;-85
2023/02/19 14:19:42;;;;;;;7.63;2.15;;;;;;;;;;5017822;28;20234;-88
2023/02/19 14:22:29;;;;;;;6.47;2.25;;;;;;;;;;5024098;28;20018;-89
2023/02/19 14:24:57;;;;;;;8.80;2.65;;;;;;;;;;5025552;28;20038;-87
2023/02/19 14:27:23;;;;;;;7.00;2.40;;;;;;;;;;5016000;28;20049;-86
2023/02/19 14:29:49;;;;;;;7.28;2.10;;;;;;;;;;5026814;28;20483;-87
2023/02/19 14:32:19;;;;;;;7.18;2.40;;;;;;;;;;5030283;28;20081;-87
2023/02/19 14:34:45;;;;;;;9.18;2.00;;;;;;;;;;5023915;28;20030;-88
2023/02/19 14:37:19;;;;;;;6.63;2.40;;;;;;;;;;5016724;28;20169;-88
2023/02/19 14:39:51;;;;;;;6.93;1.67;;;;;;;;;;5016053;28;20022;-87
2023/02/19 14:42:19;;;;;;;5.97;1.73;;;;;;;;;;5018973;28;21261;-88
2023/02/19 14:44:56;;;;;;;5.70;1.80;;;12.00;99.90;;;;;;5032218;28;20033;-88
2023/02/19 14:47:23;;;;;;;8.10;1.98;;;;;;;;;;5032104;28;20029;-89
2023/02/19 14:49:58;;;;;;;8.05;2.13;;;12.00;99.90;;;;;;5038394;28;20032;-85
2023/02/19 14:52:35;;;;;;;7.88;1.98;;;;;;;;;;5018258;28;20025;-89
2023/02/19 14:55:06;;;;;;;6.47;1.70;;;;;;;;;;5020687;28;20026;-88
2023/02/19 14:57:35;;;;;;;8.93;1.98;;;;;;;;;;5033970;28;20022;-87